Terminal Aerodrome Forecast
Issued by NWS Mobile, AL

Current Version | Previous Version | Text Only | Print | Product List | Glossary On
Versions: 1 2 3 4 5 6 7 8 9 10 11 12 13 14 15 16 17 18 19 20 21 22 23 24 25 26 27 28 29
000
FTUS44 KMOB 271148
TAFPNS
TAF
KPNS 271148Z 2712/2812 00000KT P6SM FEW060 SCT250
     FM271600 18015KT P6SM VCSH SCT030 BKN050
      TEMPO 2718/2722 3SM TSRA OVC025CB
     FM280100 19004KT P6SM VCSH FEW025 SCT050=

USA.gov is the U.S. government's official web portal to all federal, state and local government web resources and services.